Time;durP1;ratioP1;P1;durP2;ratioP2;P2;SDS_P1;SDS_P2;PMS_P1;PMS_P2;Temp;Humidity;BMP_temperature;BMP_pressure;BME280_temperature;BME280_humidity;BME280_pressure;Samples;Min_cycle;Max_cycle;Signal;HPM_P1;HPM_P2
2023/07/30 00:02:18;;;;;;;4.15;3.75;;;;;;;;;;5040419;28;20223;-65
2023/07/30 00:04:44;;;;;;;5.75;3.17;;;;;;;;;;5043190;28;20243;-67
2023/07/30 00:07:11;;;;;;;6.53;3.45;;;;;;;;;;5032225;28;20661;-67
2023/07/30 00:09:37;;;;;;;7.72;4.57;;;;;;;;;;5033152;28;20230;-67
2023/07/30 00:12:04;;;;;;;7.20;4.30;;;;;;;;;;5032491;28;20206;-67
2023/07/30 00:14:31;;;;;;;4.93;4.40;;;;;;;;;;5032647;28;20737;-66
2023/07/30 00:16:58;;;;;;;6.75;4.57;;;;;;;;;;5031782;28;20208;-67
2023/07/30 00:19:25;;;;;;;7.15;4.07;;;;;;;;;;5032455;28;20211;-67
2023/07/30 00:21:51;;;;;;;4.60;4.10;;;;;;;;;;5031626;28;20635;-67
2023/07/30 00:24:18;;;;;;;6.60;4.35;;;;;;;;;;5032564;28;20234;-67
2023/07/30 00:26:44;;;;;;;4.47;4.15;;;;;;;;;;5032119;28;20246;-67
2023/07/30 00:29:11;;;;;;;4.82;4.18;;;;;;;;;;5032467;28;20246;-67
2023/07/30 00:31:37;;;;;;;6.20;3.75;;;;;;;;;;5031671;28;20644;-66
2023/07/30 00:34:05;;;;;;;4.18;3.88;;;;;;;;;;5032199;28;20259;-67
2023/07/30 00:36:31;;;;;;;5.55;4.18;;;;;;;;;;5031682;28;20584;-66
2023/07/30 00:38:58;;;;;;;4.00;3.67;;;;;;;;;;5032108;28;20635;-66
2023/07/30 00:41:24;;;;;;;4.13;3.78;;;;;;;;;;5032282;28;20666;-67
2023/07/30 00:43:50;;;;;;;3.90;3.60;;;;;;;;;;5031803;28;20235;-67
2023/07/30 00:46:17;;;;;;;3.85;3.58;;;;;;;;;;5031829;28;20212;-66
2023/07/30 00:48:44;;;;;;;4.72;4.18;;;;;;;;;;5031917;28;20217;-66
2023/07/30 00:51:14;;;;;;;4.38;4.05;;;;;;;;;;5019799;28;20253;-66
2023/07/30 00:53:40;;;;;;;4.05;3.75;;;;;;;;;;5031711;28;20246;-66
2023/07/30 00:56:07;;;;;;;4.40;3.75;;;;;;;;;;5032059;28;20204;-65
2023/07/30 00:58:33;;;;;;;3.95;3.65;;;;;;;;;;5031130;28;20632;-66
2023/07/30 01:01:00;;;;;;;4.40;4.05;;;;;;;;;;5031677;28;21268;-66
2023/07/30 01:03:26;;;;;;;4.05;3.85;;;;;;;;;;5031205;28;20266;-66
2023/07/30 01:05:53;;;;;;;4.03;3.63;;;;;;;;;;5031753;28;20669;-67
2023/07/30 01:08:21;;;;;;;4.78;4.18;;;;;;;;;;5031470;28;20207;-67
2023/07/30 01:10:48;;;;;;;3.85;3.55;;;;;;;;;;5031502;28;20207;-66
2023/07/30 01:13:16;;;;;;;3.42;3.22;;;;;;;;;;5030324;28;20292;-66
2023/07/30 01:15:43;;;;;;;3.53;3.22;;;;;;;;;;5029611;28;20219;-66
2023/07/30 01:18:10;;;;;;;3.83;3.53;;;;;;;;;;5029071;28;20214;-66
2023/07/30 01:20:36;;;;;;;4.05;3.42;;;;;;;;;;5029597;28;20208;-66
2023/07/30 01:23:04;;;;;;;3.60;2.92;;;;;;;;;;5029220;28;20235;-67
2023/07/30 01:25:34;;;;;;;3.58;3.38;;;;;;;;;;5030000;28;20254;-67
2023/07/30 01:28:02;;;;;;;3.83;3.53;;;;;;;;;;5029115;28;20294;-66
2023/07/30 01:30:30;;;;;;;3.28;3.05;;;;;;;;;;5030414;28;20273;-66
2023/07/30 01:32:56;;;;;;;5.80;3.40;;;;;;;;;;5029072;28;20195;-66
2023/07/30 01:35:25;;;;;;;3.20;3.00;;;;;;;;;;5029555;28;20732;-64
2023/07/30 01:37:52;;;;;;;2.58;2.38;;;;;;;;;;5028992;28;20200;-66
2023/07/30 01:40:20;;;;;;;3.10;2.90;;;;;;;;;;5029485;28;20286;-66
2023/07/30 01:42:47;;;;;;;3.78;3.47;;;;;;;;;;5028787;28;20689;-67
2023/07/30 01:45:13;;;;;;;3.10;2.90;;;;;;;;;;5029447;28;20196;-66
2023/07/30 01:47:40;;;;;;;2.78;2.58;;;;;;;;;;5030869;28;20220;-66
2023/07/30 01:50:06;;;;;;;2.92;2.65;;;;;;;;;;5031031;28;20235;-67
2023/07/30 01:52:33;;;;;;;3.20;3.00;;;;;;;;;;5030441;28;20665;-66
2023/07/30 01:55:00;;;;;;;2.67;2.50;;;;;;;;;;5030958;28;20227;-67
2023/07/30 01:57:28;;;;;;;3.90;2.88;;;;;;;;;;5030598;28;20211;-66
2023/07/30 01:59:55;;;;;;;3.40;3.10;;;;;;;;;;5030655;28;20261;-66
2023/07/30 02:02:21;;;;;;;3.92;3.10;;;;;;;;;;5030214;28;20240;-66
2023/07/30 02:04:48;;;;;;;2.85;2.75;;;;;;;;;;5030556;28;20856;-66
2023/07/30 02:07:14;;;;;;;2.53;2.40;;;;;;;;;;5030264;28;20211;-67
2023/07/30 02:09:40;;;;;;;3.33;3.13;;;;;;;;;;5030335;28;20203;-66
2023/07/30 02:12:08;;;;;;;3.45;3.25;;;;;;;;;;5030326;28;20227;-66
2023/07/30 02:14:35;;;;;;;3.10;2.90;;;;;;;;;;5030149;28;20293;-67
2023/07/30 02:17:02;;;;;;;3.92;3.63;;;;;;;;;;5030563;28;20258;-67
2023/07/30 02:19:28;;;;;;;3.10;2.85;;;;;;;;;;5030025;28;20204;-67
2023/07/30 02:21:55;;;;;;;4.07;3.10;;;;;;;;;;5030447;28;20227;-66
2023/07/30 02:24:22;;;;;;;6.15;3.40;;;;;;;;;;5030835;28;20199;-67
2023/07/30 02:26:49;;;;;;;3.60;3.33;;;;;;;;;;5031400;28;20655;-66
2023/07/30 02:29:16;;;;;;;3.92;3.58;;;;;;;;;;5029830;28;20294;-66
2023/07/30 02:31:43;;;;;;;3.60;3.40;;;;;;;;;;5030624;28;20672;-66
2023/07/30 02:34:10;;;;;;;3.88;3.58;;;;;;;;;;5030176;28;20685;-66
2023/07/30 02:36:36;;;;;;;4.97;3.47;;;;;;;;;;5030267;28;20207;-66
2023/07/30 02:39:03;;;;;;;5.75;3.50;;;;;;;;;;5029592;28;20265;-66
2023/07/30 02:41:29;;;;;;;3.97;3.70;;;;;;;;;;5017748;28;20207;-67
2023/07/30 02:43:56;;;;;;;3.67;3.42;;;;;;;;;;5030198;28;20334;-66
2023/07/30 02:46:22;;;;;;;3.72;3.50;;;;;;;;;;5030102;28;20207;-66
2023/07/30 02:48:50;;;;;;;4.68;3.60;;;;;;;;;;5030093;28;20199;-66
2023/07/30 02:51:16;;;;;;;4.05;3.72;;;;;;;;;;5030201;28;20207;-66
2023/07/30 02:53:43;;;;;;;3.50;3.30;;;;;;;;;;5031574;28;20235;-67
2023/07/30 02:56:10;;;;;;;3.70;3.38;;;;;;;;;;5029901;28;20223;-67
2023/07/30 02:58:36;;;;;;;3.70;3.50;;;;;;;;;;5029462;28;20203;-67
2023/07/30 03:01:06;;;;;;;5.68;3.53;;;;;;;;;;5030483;28;20231;-67
2023/07/30 03:03:32;;;;;;;3.53;3.22;;;;;;;;;;5030106;28;20239;-66
2023/07/30 03:06:00;;;;;;;3.83;3.53;;;;;;;;;;5030876;28;20229;-66
2023/07/30 03:08:27;;;;;;;4.40;3.42;;;;;;;;;;5029566;28;20207;-66
2023/07/30 03:10:53;;;;;;;4.40;4.00;;;;;;;;;;5029367;28;20216;-66
2023/07/30 03:13:21;;;;;;;7.65;4.70;;;;;;;;;;5031269;28;20208;-66
2023/07/30 03:15:47;;;;;;;9.07;4.40;;;;;;;;;;5028088;28;20223;-66
2023/07/30 03:18:14;;;;;;;10.07;4.38;;;;;;;;;;5027506;28;20285;-66
2023/07/30 03:20:41;;;;;;;12.40;4.32;;;;;;;;;;5028521;28;20265;-66
2023/07/30 03:23:09;;;;;;;6.10;4.00;;;;;;;;;;5028027;28;20242;-67
2023/07/30 03:25:35;;;;;;;5.40;3.80;;;;;;;;;;5028690;28;20286;-67
2023/07/30 03:28:01;;;;;;;4.70;3.60;;;;;;;;;;5027618;28;20200;-66
2023/07/30 03:30:28;;;;;;;6.60;3.55;;;;;;;;;;5029846;28;20258;-66
2023/07/30 03:32:54;;;;;;;11.85;4.25;;;;;;;;;;5028951;28;20207;-66
2023/07/30 03:35:21;;;;;;;11.55;3.85;;;;;;;;;;5028388;28;20227;-66
2023/07/30 03:37:47;;;;;;;4.10;3.90;;;;;;;;;;5027770;28;20274;-66
2023/07/30 03:40:15;;;;;;;3.65;3.42;;;;;;;;;;5028181;28;20207;-66
2023/07/30 03:42:42;;;;;;;4.70;3.13;;;;;;;;;;5030804;28;20713;-66
2023/07/30 03:45:08;;;;;;;5.63;3.60;;;;;;;;;;5032754;28;20223;-65
2023/07/30 03:47:35;;;;;;;3.35;3.15;;;;;;;;;;5031864;28;20200;-66
2023/07/30 03:50:01;;;;;;;9.73;3.10;;;;;;;;;;5033467;28;20239;-67
2023/07/30 03:52:28;;;;;;;2.67;2.53;;;;;;;;;;5032846;28;20231;-66
2023/07/30 03:54:54;;;;;;;3.00;2.83;;;;;;;;;;5033581;28;20251;-66
2023/07/30 03:57:22;;;;;;;3.63;3.13;;;;;;;;;;5032856;28;20203;-67
2023/07/30 03:59:48;;;;;;;3.53;2.90;;;;;;;;;;5033391;28;20318;-67
2023/07/30 04:02:15;;;;;;;3.13;2.90;;;;;;;;;;5032637;28;20215;-67
2023/07/30 04:04:43;;;;;;;4.25;3.67;;;;;;;;;;5033038;28;20318;-66
2023/07/30 04:07:11;;;;;;;2.75;2.55;;;;;;;;;;5032658;28;20211;-66
2023/07/30 04:09:37;;;;;;;4.10;3.80;;;;;;;;;;5032996;28;20238;-66
2023/07/30 04:12:04;;;;;;;4.88;3.17;;;;;;;;;;5032857;28;20266;-65
2023/07/30 04:14:31;;;;;;;3.40;3.15;;;;;;;;;;5033032;28;20207;-66
2023/07/30 04:16:58;;;;;;;3.13;2.92;;;;;;;;;;5032758;28;20255;-67
2023/07/30 04:19:24;;;;;;;3.20;2.90;;;;;;;;;;5033017;28;20235;-66
2023/07/30 04:21:52;;;;;;;3.00;2.80;;;;;;;;;;5032364;28;20207;-67
2023/07/30 04:24:18;;;;;;;3.75;2.85;;;;;;;;;;5033048;28;20211;-67
2023/07/30 04:26:45;;;;;;;3.03;2.42;;;;;;;;;;5032480;28;20200;-67
2023/07/30 04:29:13;;;;;;;2.45;2.33;;;;;;;;;;5032783;28;20196;-67
2023/07/30 04:31:41;;;;;;;2.30;2.20;;;;;;;;;;5032748;28;20199;-67
2023/07/30 04:34:07;;;;;;;2.67;2.55;;;;;;;;;;5032386;28;20199;-67
2023/07/30 04:36:34;;;;;;;3.05;2.50;;;;;;;;;;5032311;28;20282;-67
2023/07/30 04:39:00;;;;;;;4.80;2.80;;;;;;;;;;5031953;28;20211;-66
2023/07/30 04:41:27;;;;;;;4.78;3.03;;;;;;;;;;5032584;28;20758;-67
2023/07/30 04:43:53;;;;;;;3.83;3.40;;;;;;;;;;5032424;28;20234;-67
2023/07/30 04:46:19;;;;;;;2.70;2.50;;;;;;;;;;5032505;28;20227;-68
2023/07/30 04:48:47;;;;;;;3.05;2.78;;;;;;;;;;5031901;28;20683;-67
2023/07/30 04:51:14;;;;;;;4.07;2.70;;;;;;;;;;5032133;28;20207;-67
2023/07/30 04:53:40;;;;;;;6.30;3.17;;;;;;;;;;5031874;28;20211;-68
2023/07/30 04:56:07;;;;;;;3.45;3.00;;;;;;;;;;5032404;28;20219;-67
2023/07/30 04:58:33;;;;;;;3.92;3.00;;;;;;;;;;5031671;28;20215;-67
2023/07/30 05:00:59;;;;;;;8.77;2.90;;;;;;;;;;5032369;28;20228;-67
2023/07/30 05:03:26;;;;;;;2.88;2.67;;;;;;;;;;5031563;28;20715;-67
2023/07/30 05:05:54;;;;;;;3.85;3.08;;;;;;;;;;5032170;28;20254;-66
2023/07/30 05:08:20;;;;;;;4.55;3.13;;;;;;;;;;5031406;28;20689;-66
2023/07/30 05:10:47;;;;;;;6.90;3.22;;;;;;;;;;5032229;28;20236;-66
2023/07/30 05:13:13;;;;;;;3.05;2.85;;;;;;;;;;5030703;28;20208;-66
2023/07/30 05:15:40;;;;;;;3.15;2.95;;;;;;;;;;5030670;28;20759;-67
2023/07/30 05:18:06;;;;;;;3.15;2.95;;;;;;;;;;5029670;28;20200;-67
2023/07/30 05:20:33;;;;;;;6.07;3.72;;;;;;;;;;5030413;28;20285;-66
2023/07/30 05:23:02;;;;;;;4.28;3.25;;;;;;;;;;5030378;28;20200;-67
2023/07/30 05:25:28;;;;;;;4.30;3.40;;;;;;;;;;5030190;28;20210;-66
2023/07/30 05:27:54;;;;;;;3.35;3.15;;;;;;;;;;5029658;28;20243;-67
2023/07/30 05:30:21;;;;;;;4.20;3.60;;;;;;;;;;5029883;28;20207;-67
2023/07/30 05:32:47;;;;;;;3.58;3.28;;;;;;;;;;5029346;28;20246;-67
2023/07/30 05:35:14;;;;;;;2.80;2.67;;;;;;;;;;5029468;28;20211;-67
2023/07/30 05:37:41;;;;;;;4.93;3.50;;;;;;;;;;5028998;28;20235;-67
2023/07/30 05:40:09;;;;;;;9.15;4.38;;;;;;;;;;5029869;28;20261;-66
2023/07/30 05:42:35;;;;;;;2.90;2.70;;;;;;;;;;5028988;28;20195;-67
2023/07/30 05:45:02;;;;;;;6.63;3.40;;;;;;;;;;5030463;28;20792;-67
2023/07/30 05:47:28;;;;;;;4.00;3.30;;;;;;;;;;5030636;28;20712;-67
2023/07/30 05:49:55;;;;;;;4.43;3.63;;;;;;;;;;5031025;28;20242;-67
2023/07/30 05:52:21;;;;;;;3.60;3.30;;;;;;;;;;5030551;28;20262;-66
2023/07/30 05:54:48;;;;;;;4.63;3.78;;;;;;;;;;5031374;28;20319;-67
2023/07/30 05:57:15;;;;;;;3.83;3.53;;;;;;;;;;5030699;28;20286;-67
2023/07/30 05:59:42;;;;;;;5.45;4.13;;;;;;;;;;5031089;28;20253;-67
2023/07/30 06:02:08;;;;;;;3.53;3.22;;;;;;;;;;5030491;28;20682;-66
2023/07/30 06:04:35;;;;;;;3.80;3.40;;;;;;;;;;5030047;28;20278;-66
2023/07/30 06:07:03;;;;;;;10.98;4.07;;;;;;;;;;5030497;28;20223;-67
2023/07/30 06:09:29;;;;;;;3.63;3.33;;;;;;;;;;5030971;28;20288;-66
2023/07/30 06:11:56;;;;;;;3.65;3.25;;;;;;;;;;5030526;28;20257;-67
2023/07/30 06:14:24;;;;;;;4.05;3.72;;;;;;;36.11;nan;95023.53;5031293;28;20231;-67
2023/07/30 06:16:51;;;;;;;3.75;3.42;;;;;;;39.01;nan;95020.84;5029914;28;20736;-67
2023/07/30 06:19:17;;;;;;;4.47;3.55;;;;;;;41.63;nan;95004.19;5030881;28;20208;-68
2023/07/30 06:21:44;;;;;;;4.28;3.92;;;;;;;43.84;nan;95010.41;5030348;28;20206;-68
2023/07/30 06:24:11;;;;;;;5.25;3.72;;;;;;;45.55;nan;94992.31;5030854;28;20306;-68
2023/07/30 06:26:37;;;;;;;3.85;3.60;;;;;;;47.23;nan;94986.13;5029697;28;20559;-68
2023/07/30 06:29:04;;;;;;;4.43;3.65;;;;;;;47.88;nan;94984.69;5030413;28;20685;-68
2023/07/30 06:31:32;;;;;;;6.85;3.90;;;;;;;48.59;nan;94986.47;5030070;28;20268;-68
2023/07/30 06:33:59;;;;;;;3.88;3.67;;;;;;;49.25;nan;94971.19;5030188;28;20258;-67
2023/07/30 06:36:25;;;;;;;4.13;3.75;;;;;;;49.82;nan;94972.56;5030269;28;20254;-68
2023/07/30 06:38:52;;;;;;;6.20;4.13;;;;;;;50.08;nan;94964.75;5030455;28;20231;-68
2023/07/30 06:41:19;;;;;;;5.15;4.20;;;;;;;50.73;nan;94959.06;5029998;28;20269;-68
2023/07/30 06:43:46;;;;;;;3.58;3.35;;;;;;;51.63;nan;94981.47;5030307;28;20207;-67
2023/07/30 06:46:12;;;;;;;11.52;3.53;;;;;;;51.69;nan;94963.97;5029604;28;20559;-68
2023/07/30 06:48:40;;;;;;;3.75;3.55;;;;;;;51.86;nan;94958.59;5029933;28;20626;-68
2023/07/30 06:51:08;;;;;;;4.25;3.88;;;;;;;51.64;nan;94951.34;5030019;28;20199;-68
2023/07/30 06:53:34;;;;;;;8.18;3.83;;;;;;;51.89;nan;94957.16;5030466;28;20290;-68
2023/07/30 06:56:01;;;;;;;5.30;3.72;;;;;;;52.70;nan;94946.66;5030473;28;20255;-67
2023/07/30 06:58:28;;;;;;;4.00;3.70;;;;;;;52.17;nan;94947.69;5029604;28;20253;-68
2023/07/30 07:00:54;;;;;;;7.97;3.90;;;;;;;51.15;nan;94948.84;5030331;28;20195;-67
2023/07/30 07:03:21;;;;;;;4.53;3.85;;;;;;;51.15;nan;94951.53;5029348;28;20262;-67
2023/07/30 07:05:55;;;;;;;3.63;3.33;;;;;;;51.15;nan;94946.94;5030016;28;20684;-67
2023/07/30 07:08:22;;;;;;;3.08;2.90;;;;;;;50.40;nan;94933.28;5029699;28;20207;-67
2023/07/30 07:10:48;;;;;;;3.72;2.95;;;;;;;49.28;nan;94946.28;5029996;28;20207;-67
2023/07/30 07:13:16;;;;;;;4.25;3.53;;;;;;;48.44;nan;94940.03;5016636;28;20238;-67
2023/07/30 07:15:42;;;;;;;3.50;3.22;;;;;;;48.78;nan;94926.31;5029984;28;20203;-67
2023/07/30 07:18:09;;;;;;;3.80;3.60;;;;;;;50.04;nan;94931.31;5031760;28;20195;-68
2023/07/30 07:20:36;;;;;;;6.00;3.20;;;;;;;50.54;nan;94934.03;5032479;28;20290;-67
2023/07/30 07:23:05;;;;;;;3.22;2.92;;;;;;;51.11;nan;94918.88;5032253;28;20206;-67
2023/07/30 07:25:31;;;;;;;3.15;3.03;;;;;;;51.63;nan;94928.09;5032405;28;20226;-67
2023/07/30 07:27:58;;;;;;;4.65;3.38;;;;;;;51.60;nan;94939.53;5031324;28;20564;-66
2023/07/30 07:30:25;;;;;;;3.75;3.40;;;;;;;51.68;nan;94930.66;5031652;28;20231;-65
2023/07/30 07:32:53;;;;;;;3.78;3.58;;;;;;;50.35;nan;94920.69;5031509;28;20735;-67
2023/07/30 07:35:21;;;;;;;6.88;3.40;;;;;;;50.10;nan;94913.91;5032207;28;20211;-66
2023/07/30 07:37:47;;;;;;;3.85;3.50;;;;;;;51.14;nan;94906.63;5031501;28;20302;-67
2023/07/30 07:40:16;;;;;;;4.53;4.22;;;;;;;51.76;nan;94910.09;5031919;28;20260;-67
2023/07/30 07:42:43;;;;;;;3.95;3.45;;;;;;;51.66;nan;94904.97;5031720;28;20632;-68
2023/07/30 07:45:10;;;;;;;4.65;3.92;;;;;;;51.60;nan;94911.63;5032445;28;20447;-67
2023/07/30 07:47:36;;;;;;;4.03;3.50;;;;;;;51.71;nan;94907.56;5033327;28;20282;-67
2023/07/30 07:50:03;;;;;;;3.88;3.63;;;;;;;51.93;nan;94909.34;5033334;28;20203;-66
2023/07/30 07:52:30;;;;;;;4.95;4.32;;;;;;;51.02;nan;94904.47;5033108;28;20214;-67
2023/07/30 07:54:57;;;;;;;3.63;3.42;;;;;;;50.82;nan;94903.06;5033667;28;20203;-68
2023/07/30 07:57:25;;;;;;;7.20;3.60;;;;;;;51.72;nan;94908.34;5032635;28;20226;-67
2023/07/30 07:59:51;;;;;;;5.90;4.28;;;;;;;51.89;nan;94902.97;5033325;28;20257;-68
2023/07/30 08:02:18;;;;;;;6.57;3.80;;;;;;;51.83;nan;94898.78;5045047;28;20265;-68
2023/07/30 08:04:45;;;;;;;4.32;3.78;;;;;;;53.06;nan;94893.91;5034070;28;20235;-67
2023/07/30 08:07:12;;;;;;;3.75;3.53;;;;;;;52.15;nan;94895.69;5033078;28;20261;-67
2023/07/30 08:09:39;;;;;;;3.72;3.45;;;;;;;50.35;nan;94893.63;5033423;28;20633;-67
2023/07/30 08:12:06;;;;;;;3.72;3.47;;;;;;;49.70;nan;94893.94;5033073;28;20199;-68
2023/07/30 08:14:34;;;;;;;4.40;3.50;;;;;;;50.68;nan;94884.22;5033351;28;20210;-68
2023/07/30 08:17:01;;;;;;;3.95;3.55;;;;;;;51.14;nan;94887.66;5032218;28;20250;-68
2023/07/30 08:19:28;;;;;;;3.83;3.63;;;;;;;51.69;nan;94882.69;5033097;28;20203;-69
2023/07/30 08:21:56;;;;;;;7.13;3.80;;;;;;;52.73;nan;94883.56;5032807;28;20293;-67
2023/07/30 08:24:23;;;;;;;5.40;3.80;;;;;;;53.98;nan;94890.31;5032715;28;20208;-67
2023/07/30 08:26:49;;;;;;;5.32;3.20;;;;;;;52.83;nan;94888.66;5031904;28;20334;-68
2023/07/30 08:29:16;;;;;;;4.03;3.28;;;;;;;52.08;nan;94889.94;5032479;28;20234;-67
2023/07/30 08:31:44;;;;;;;3.55;3.35;;;;;;;51.18;nan;94884.03;5033515;28;20677;-67
2023/07/30 08:34:11;;;;;;;3.38;3.13;;;;;;;50.73;nan;94877.09;5032720;28;20617;-66
2023/07/30 08:36:37;;;;;;;5.88;3.38;;;;;;;50.54;nan;94874.53;5033002;28;20753;-68
2023/07/30 08:39:04;;;;;;;3.63;3.42;;;;;;;50.19;nan;94871.53;5032393;28;20742;-68
2023/07/30 08:41:31;;;;;;;4.10;2.90;;;;;;;50.37;nan;94859.78;5032736;28;20211;-68
2023/07/30 08:43:58;;;;;;;3.35;3.15;;;;;;;51.08;nan;94861.84;5032104;28;20739;-67
2023/07/30 08:46:25;;;;;;;3.90;3.60;;;;;;;51.47;nan;94858.38;5032465;28;20203;-68
2023/07/30 08:48:53;;;;;;;3.67;3.47;;;;;;;52.07;nan;94861.22;5032319;28;20264;-68
2023/07/30 08:51:22;;;;;;;3.65;3.45;;;;;;;52.26;nan;94859.00;5032309;28;20203;-68
2023/07/30 08:53:49;;;;;;;3.65;3.30;;;;;;;52.75;nan;94854.19;5032219;28;20579;-69
2023/07/30 08:56:16;;;;;;;6.13;4.13;;;;;;;53.40;nan;94853.06;5032024;28;20203;-68
2023/07/30 08:58:44;;;;;;;3.50;3.20;;;;;;;52.33;nan;94858.53;5031474;28;20226;-68
2023/07/30 09:01:13;;;;;;;4.03;3.40;;;;;;;51.98;nan;94852.28;5032246;28;20257;-68
2023/07/30 09:03:41;;;;;;;3.78;3.50;;;;;;;51.87;nan;94850.97;5031756;28;20267;-68
2023/07/30 09:06:09;;;;;;;4.40;3.42;;;;;;;51.87;nan;94842.84;5032288;28;20195;-68
2023/07/30 09:08:36;;;;;;;4.30;3.58;;;;;;;51.80;nan;94846.03;5031721;28;20288;-68
2023/07/30 09:11:12;;;;;;;3.92;3.63;;;;;;;51.83;nan;94844.59;5032314;28;20270;-68
2023/07/30 09:13:39;;;;;;;3.78;3.58;;;;;;;52.23;nan;94851.47;5019651;28;20210;-67
2023/07/30 09:16:11;;;;;;;3.92;3.38;;;;;;;50.49;nan;94851.09;5030460;28;20280;-67
2023/07/30 09:18:42;;;;;;;4.30;4.10;;;;;;;48.03;nan;94854.34;5029402;28;20223;-67
2023/07/30 09:21:11;;;;;;;4.38;3.97;;;;;;;46.37;nan;94835.09;5030053;28;20631;-68
2023/07/30 09:23:42;;;;;;;3.75;3.45;;;;;;;45.90;nan;94849.06;5030126;28;20287;-68
2023/07/30 09:26:09;;;;;;;3.80;3.60;;;;;;;46.05;nan;94834.75;5029453;28;20677;-68
2023/07/30 09:28:35;;;;;;;3.53;3.40;;;;;;;46.26;nan;94838.91;5029601;28;20685;-68
2023/07/30 09:31:03;;;;;;;4.22;3.97;;;;;;;45.86;nan;94845.31;5030134;28;20681;-68
2023/07/30 09:33:29;;;;;;;3.75;3.50;;;;;;;44.96;nan;94829.25;5031698;28;20207;-68
2023/07/30 09:35:56;;;;;;;3.78;3.58;;;;;;;44.47;nan;94830.91;5030993;28;20688;-67
2023/07/30 09:38:25;;;;;;;3.33;2.90;;;;;;;44.02;nan;94822.56;5030775;28;20224;-68
2023/07/30 09:40:53;;;;;;;4.10;3.70;;;;;;;43.49;nan;94826.38;5031295;28;20204;-68
2023/07/30 09:43:19;;;;;;;4.20;3.75;;;;;;;42.67;nan;94818.94;5031156;28;20211;-67
2023/07/30 09:45:47;;;;;;;3.63;3.30;;;;;;;41.61;nan;94822.19;5031235;28;20700;-67
2023/07/30 09:48:15;;;;;;;5.40;3.63;;;;;;;39.58;nan;94821.69;5031197;28;20195;-67
2023/07/30 09:50:44;;;;;;;3.30;3.10;;;;;;;38.06;nan;94823.50;5030860;28;20681;-68
2023/07/30 09:53:12;;;;;;;3.80;3.47;;;;;;;37.09;nan;94815.53;5030929;28;20220;-68
2023/07/30 09:55:40;;;;;;;5.07;3.63;;;;;;;36.40;nan;94826.34;5030910;28;20287;-68
2023/07/30 09:58:10;;;;;;;3.75;3.55;;;;;;;35.99;nan;94813.59;5030922;28;20255;-68
2023/07/30 10:00:37;;;;;;;4.20;3.90;;;;;;;;;;5030940;28;20252;-68
2023/07/30 10:03:05;;;;;;;11.23;4.18;;;;;;;35.35;nan;94822.47;5030798;28;20662;-68
2023/07/30 10:05:33;;;;;;;6.25;3.40;;;;;;;;;;5031081;28;20226;-68
2023/07/30 10:08:03;;;;;;;15.95;4.80;;;;;;;34.90;nan;94817.09;5031042;28;20200;-68
2023/07/30 10:10:31;;;;;;;3.83;3.13;;;;;;;34.68;nan;94813.03;5030206;28;20672;-68
2023/07/30 10:13:00;;;;;;;6.00;4.50;;;;;;;;;;5030574;28;20203;-67
2023/07/30 10:15:27;;;;;;;17.27;4.43;;;;;;;34.46;nan;94801.91;5031205;28;20231;-68
2023/07/30 10:17:56;;;;;;;7.93;4.00;;;;;;;34.42;nan;94806.78;5030380;28;20223;-68
2023/07/30 10:20:25;;;;;;;4.28;3.30;;;;;;;34.16;nan;94796.22;5030775;28;20211;-67
2023/07/30 10:22:54;;;;;;;5.25;3.97;;;;;;;33.78;nan;94794.16;5030368;28;20204;-67
2023/07/30 10:25:23;;;;;;;5.32;3.70;;;;;;;33.55;nan;94761.25;5030556;28;20639;-68
2023/07/30 10:27:50;;;;;;;18.70;5.55;;;;;;;;;;5030234;28;20588;-68
2023/07/30 10:30:20;;;;;;;9.27;4.85;;;;;;;33.25;nan;94787.06;5030623;28;20551;-68
2023/07/30 10:33:11;;;;;;;9.75;4.50;;;;;;;33.37;nan;94785.53;5029993;28;20262;-68
2023/07/30 10:35:41;;;;;;;4.18;3.88;;;;;;;;;;5027086;28;20239;-67
2023/07/30 10:38:18;;;;;;;4.10;3.80;;;;;;;;;;5029671;28;20251;-69
2023/07/30 10:40:59;;;;;;;5.38;3.90;;;;;;;;;;5030052;28;20207;-67
2023/07/30 10:43:28;;;;;;;7.03;3.63;;;;;;;;;;5030355;28;20234;-68
2023/07/30 10:45:55;;;;;;;9.77;4.32;;;;;;;;;;5030388;28;20269;-68
2023/07/30 10:48:30;;;;;;;3.42;3.13;;;;;;;;;;5029997;28;20196;-68
2023/07/30 10:50:56;;;;;;;4.65;4.20;;;;;;;;;;5029247;28;20751;-68
2023/07/30 10:53:23;;;;;;;5.78;4.68;;;;;;;;;;5030365;28;20228;-70
2023/07/30 10:55:49;;;;;;;5.03;3.78;;;;;;;;;;5030123;28;20217;-67
2023/07/30 10:58:16;;;;;;;3.88;3.58;;;;;;;;;;5030252;28;20259;-68
2023/07/30 11:00:42;;;;;;;3.90;3.70;;;;;;;;;;5029730;28;20290;-67
2023/07/30 11:03:11;;;;;;;3.95;3.65;;;;;;;;;;5030336;28;20293;-66
2023/07/30 11:05:38;;;;;;;3.72;3.42;;;;;;;;;;5029059;28;20633;-68
2023/07/30 11:08:06;;;;;;;3.55;3.30;;;;;;;;;;5029839;28;20203;-69
2023/07/30 11:10:35;;;;;;;4.43;4.15;;;;;;;;;;5030219;28;20204;-67
2023/07/30 11:13:02;;;;;;;4.07;3.78;;;;;;;;;;5022913;28;20228;-67
2023/07/30 11:15:28;;;;;;;5.30;3.25;;;;;;;;;;5028478;28;20234;-67
2023/07/30 11:17:55;;;;;;;5.80;4.28;;;;;;;;;;5028220;28;20280;-67
2023/07/30 11:20:27;;;;;;;3.58;3.38;;;;;;;;;;5028310;28;20269;-68
2023/07/30 11:22:53;;;;;;;3.88;3.58;;;;;;;;;;5027651;28;20230;-67
2023/07/30 11:25:20;;;;;;;4.05;3.85;;;;;;;;;;5028147;28;20269;-66
2023/07/30 11:27:47;;;;;;;5.80;4.22;;;;;;;;;;5028358;28;20262;-66
2023/07/30 11:30:13;;;;;;;4.38;4.10;;;;;;;;;;5028403;28;20214;-66
2023/07/30 11:32:39;;;;;;;5.25;4.85;;;;;;;;;;5028445;28;20207;-67
2023/07/30 11:35:07;;;;;;;4.45;4.15;;;;;;;;;;5028720;28;20288;-68
2023/07/30 11:37:38;;;;;;;5.18;4.78;;;;;;;;;;5028039;28;20234;-68
2023/07/30 11:40:05;;;;;;;4.93;4.43;;;;;;;;;;5028393;28;20238;-68
2023/07/30 11:42:31;;;;;;;5.97;5.35;;;;;;;;;;5028186;28;20297;-68
2023/07/30 11:44:58;;;;;;;5.03;4.53;;;;;;;;;;5028696;28;20231;-67
2023/07/30 11:47:24;;;;;;;4.80;4.40;;;;;;;;;;5028863;28;20269;-68
2023/07/30 11:49:57;;;;;;;5.93;4.03;;;;;;;;;;5029982;28;20293;-68
2023/07/30 11:52:24;;;;;;;4.88;4.20;;;;;;;;;;5029315;28;20298;-68
2023/07/30 11:55:02;;;;;;;6.55;4.90;;;;;;;;;;5030257;28;20209;-68
2023/07/30 11:57:34;;;;;;;4.82;4.43;;;;;;;;;;5029045;28;20261;-67
2023/07/30 12:00:00;;;;;;;4.93;4.53;;;;;;;;;;5029646;28;20685;-68
2023/07/30 12:02:27;;;;;;;4.50;4.10;;;;;;;;;;5030227;28;20208;-67
2023/07/30 12:04:53;;;;;;;4.85;4.55;;;;;;;;;;5033113;28;20239;-67
2023/07/30 12:07:23;;;;;;;4.70;4.40;;;;;;;;;;5033382;28;20212;-67
2023/07/30 12:09:49;;;;;;;4.57;4.30;;;;;;;;;;5032827;28;20700;-67
2023/07/30 12:12:17;;;;;;;8.18;4.78;;;;;;;32.47;nan;94642.56;5033654;28;20203;-68
2023/07/30 12:14:44;;;;;;;4.82;4.43;;;;;;;;;;5033000;28;20203;-68
2023/07/30 12:17:11;;;;;;;5.60;4.80;;;;;;;;;;5032932;28;20697;-68
2023/07/30 12:19:37;;;;;;;4.80;4.10;;;;;;;;;;5032748;28;20203;-68
2023/07/30 12:22:04;;;;;;;4.75;4.45;;;;;;;;;;5032670;28;20204;-69
2023/07/30 12:24:31;;;;;;;5.47;4.68;;;;;;;;;;5032932;28;20231;-68
2023/07/30 12:26:57;;;;;;;4.57;4.28;;;;;;;;;;5033198;28;20262;-68
2023/07/30 12:29:25;;;;;;;4.90;4.53;;;;;;;;;;5032517;28;20203;-68
2023/07/30 12:31:53;;;;;;;4.38;4.07;;;;;;;;;;5032531;28;20656;-68
2023/07/30 12:34:20;;;;;;;4.38;4.10;;;;;;;;;;5032670;28;20204;-68
2023/07/30 12:36:46;;;;;;;4.88;4.43;;;;;;;;;;5032683;28;20204;-68
2023/07/30 12:39:13;;;;;;;4.85;4.50;;;;;;;;;;5032025;28;20255;-68
2023/07/30 12:41:40;;;;;;;5.10;4.70;;;;;;;;;;5032399;28;20207;-68
2023/07/30 12:44:06;;;;;;;4.55;4.20;;;;;;;;;;5032666;28;20305;-68
2023/07/30 12:46:34;;;;;;;5.40;4.00;;;;;;;;;;5032160;28;20211;-67
2023/07/30 12:49:03;;;;;;;4.43;4.10;;;;;;;;;;5031916;28;20713;-68
2023/07/30 12:51:30;;;;;;;4.22;3.55;;;;;;;;;;5032009;28;20788;-68
2023/07/30 12:53:56;;;;;;;5.72;5.20;;;;;;;;;;5032115;28;20580;-68
2023/07/30 12:56:23;;;;;;;4.63;4.38;;;;;;;;;;5032513;28;20203;-68
2023/07/30 12:58:49;;;;;;;4.22;3.92;;;;;;;;;;5031299;28;20723;-69
2023/07/30 13:01:16;;;;;;;6.90;4.68;;;;;;;;;;5032361;28;20232;-68
2023/07/30 13:03:46;;;;;;;7.20;4.57;;;;;;;;;;5031423;28;20292;-68
2023/07/30 13:06:13;;;;;;;5.15;4.60;;;;;;;;;;5032274;28;20266;-69
2023/07/30 13:08:40;;;;;;;4.85;4.30;;;;;;;32.18;nan;94568.38;5031865;28;20563;-68
2023/07/30 13:11:07;;;;;;;4.53;4.22;;;;;;;;;;5032435;28;20196;-67
2023/07/30 13:13:33;;;;;;;5.03;4.53;;;;;;;;;;5026673;28;20203;-67
2023/07/30 13:16:01;;;;;;;4.32;3.80;;;;;;;;;;5030810;28;20235;-68
2023/07/30 13:18:28;;;;;;;4.90;4.60;;;;;;;;;;5029929;28;20618;-68
2023/07/30 13:20:56;;;;;;;4.82;4.53;;;;;;;;;;5031112;28;20207;-67
2023/07/30 13:23:25;;;;;;;4.10;3.90;;;;;;;;;;5030687;28;20393;-67
2023/07/30 13:25:51;;;;;;;3.95;3.75;;;;;;;;;;5030755;28;20204;-66
2023/07/30 13:28:18;;;;;;;4.25;3.92;;;;;;;;;;5029540;28;20207;-68
2023/07/30 13:30:44;;;;;;;4.97;4.70;;;;;;;;;;5030443;28;20200;-68
2023/07/30 13:33:11;;;;;;;4.00;3.70;;;;;;;;;;5029590;28;20211;-67
2023/07/30 13:35:38;;;;;;;5.05;4.75;;;;;;;;;;5030502;28;20208;-68
2023/07/30 13:38:06;;;;;;;5.65;4.28;;;;;;;;;;5029521;28;20277;-68
2023/07/30 13:40:32;;;;;;;4.72;4.32;;;;;;;;;;5029924;28;20211;-68
2023/07/30 13:42:58;;;;;;;5.50;4.97;;;;;;;;;;5029647;28;20262;-68